Station Historical Data
Daily Summary for December 07, 2017 Units:  Both    English   Metric
« Previous Day
Next Day »
Daily Weekly Monthly Yearly Custom
  High: Low: Average:
Temperature: 33.8 °F /  1 °C 26.5 °F /  -3.1 °C 31.4 °F /  -0.3 °C
Dew Point: 24.0 °F /  -4.4 °C 14.1 °F /  -9.9 °C 20.7 °F /  -6.3 °C
Humidity: 73% 56% 64%
Wind Speed: 17.0mph /  27.4km/h - 5.7mph /  9.2km/h
Wind Gust: 19.0mph /  30.6km/h - -
Wind- - West
Pressure: 30.01 in /  1016.1 hPa 29.90 in /  1012.4 hPa -
Precipitation: 0.01 in /  0.25 mm    
Historical Graphs
 
 
Tabular Data for December 07, 2017
Time Temperature Dew Point Pressure Wind Wind Speed Wind Gust Humidity Rainfall Rate (Hourly)
00:00 33.8 °F /  1 °C 21.8 °F /  -5.7 °C 29.91in /  1012.8hPa SW 7.0mph /  11.3km/h 16.0mph /  25.7km/h 61% 0.00in /  0mm
00:05 33.8 °F /  1 °C 21.8 °F /  -5.7 °C 29.91in /  1012.8hPa NW 10.0mph /  16.1km/h 14.0mph /  22.5km/h 61% 0.00in /  0mm
00:10 33.8 °F /  1 °C 21.8 °F /  -5.7 °C 29.91in /  1012.8hPa West 7.0mph /  11.3km/h 15.0mph /  24.1km/h 61% 0.00in /  0mm
00:15 33.8 °F /  1 °C 21.8 °F /  -5.7 °C 29.91in /  1012.8hPa SW 10.0mph /  16.1km/h 12.0mph /  19.3km/h 61% 0.00in /  0mm
00:20 33.8 °F /  1 °C 21.8 °F /  -5.7 °C 29.91in /  1012.8hPa West 5.0mph /  8km/h 17.0mph /  27.4km/h 61% 0.00in /  0mm
00:25 33.8 °F /  1 °C 21.8 °F /  -5.7 °C 29.91in /  1012.8hPa West 8.0mph /  12.9km/h 17.0mph /  27.4km/h 61% 0.00in /  0mm
00:30 33.8 °F /  1 °C 22.1 °F /  -5.5 °C 29.91in /  1012.8hPa West 7.0mph /  11.3km/h 14.0mph /  22.5km/h 62% 0.00in /  0mm
00:35 33.7 °F /  0.9 °C 22.1 °F /  -5.5 °C 29.90in /  1012.4hPa West 7.0mph /  11.3km/h 14.0mph /  22.5km/h 62% 0.00in /  0mm
00:40 33.7 °F /  0.9 °C 21.7 °F /  -5.7 °C 29.91in /  1012.8hPa West 7.0mph /  11.3km/h 14.0mph /  22.5km/h 61% 0.00in /  0mm
00:45 33.7 °F /  0.9 °C 21.7 °F /  -5.7 °C 29.91in /  1012.8hPa West 6.0mph /  9.7km/h 12.0mph /  19.3km/h 61% 0.00in /  0mm
00:50 33.7 °F /  0.9 °C 21.7 °F /  -5.7 °C 29.91in /  1012.8hPa West 9.0mph /  14.5km/h 15.0mph /  24.1km/h 61% 0.00in /  0mm
00:55 33.7 °F /  0.9 °C 21.7 °F /  -5.7 °C 29.91in /  1012.8hPa WSW 3.0mph /  4.8km/h 13.0mph /  20.9km/h 61% 0.00in /  0mm
01:00 33.6 °F /  0.9 °C 21.6 °F /  -5.8 °C 29.91in /  1012.8hPa West 6.0mph /  9.7km/h 13.0mph /  20.9km/h 61% 0.00in /  0mm
01:05 33.6 °F /  0.9 °C 21.6 °F /  -5.8 °C 29.91in /  1012.8hPa WSW 9.0mph /  14.5km/h 14.0mph /  22.5km/h 61% 0.00in /  0mm
01:10 33.5 °F /  0.8 °C 21.9 °F /  -5.6 °C 29.91in /  1012.8hPa West 7.0mph /  11.3km/h 11.0mph /  17.7km/h 62% 0.00in /  0mm
01:15 33.4 °F /  0.8 °C 21.8 °F /  -5.7 °C 29.91in /  1012.8hPa WSW 6.0mph /  9.7km/h 13.0mph /  20.9km/h 62% 0.00in /  0mm
01:20 33.4 °F /  0.8 °C 21.8 °F /  -5.7 °C 29.92in /  1013.1hPa WSW 5.0mph /  8km/h 16.0mph /  25.7km/h 62% 0.00in /  0mm
01:25 33.4 °F /  0.8 °C 21.8 °F /  -5.7 °C 29.91in /  1012.8hPa West 5.0mph /  8km/h 13.0mph /  20.9km/h 62% 0.00in /  0mm
01:30 33.4 °F /  0.8 °C 21.8 °F /  -5.7 °C 29.92in /  1013.1hPa WSW 6.0mph /  9.7km/h 15.0mph /  24.1km/h 62% 0.00in /  0mm
01:35 33.4 °F /  0.8 °C 21.8 °F /  -5.7 °C 29.92in /  1013.1hPa West 7.0mph /  11.3km/h 18.0mph /  29km/h 62% 0.00in /  0mm
01:40 33.3 °F /  0.7 °C 21.7 °F /  -5.7 °C 29.92in /  1013.1hPa West 7.0mph /  11.3km/h 18.0mph /  29km/h 62% 0.00in /  0mm
01:45 33.3 °F /  0.7 °C 21.7 °F /  -5.7 °C 29.92in /  1013.1hPa West 6.0mph /  9.7km/h 15.0mph /  24.1km/h 62% 0.00in /  0mm
01:50 33.2 °F /  0.7 °C 22.0 °F /  -5.6 °C 29.92in /  1013.1hPa West 5.0mph /  8km/h 12.0mph /  19.3km/h 63% 0.00in /  0mm
01:55 33.2 °F /  0.7 °C 22.0 °F /  -5.6 °C 29.92in /  1013.1hPa West 6.0mph /  9.7km/h 15.0mph /  24.1km/h 63% 0.00in /  0mm
02:00 33.1 °F /  0.6 °C 21.9 °F /  -5.6 °C 29.92in /  1013.1hPa NW 5.0mph /  8km/h 16.0mph /  25.7km/h 63% 0.00in /  0mm
02:05 33.1 °F /  0.6 °C 21.9 °F /  -5.6 °C 29.92in /  1013.1hPa West 8.0mph /  12.9km/h 16.0mph /  25.7km/h 63% 0.00in /  0mm
02:10 33.0 °F /  0.6 °C 21.8 °F /  -5.7 °C 29.93in /  1013.4hPa West 8.0mph /  12.9km/h 16.0mph /  25.7km/h 63% 0.00in /  0mm
02:15 33.0 °F /  0.6 °C 21.8 °F /  -5.7 °C 29.93in /  1013.4hPa West 8.0mph /  12.9km/h 16.0mph /  25.7km/h 63% 0.00in /  0mm
02:20 33.0 °F /  0.6 °C 22.1 °F /  -5.5 °C 29.93in /  1013.4hPa West 9.0mph /  14.5km/h 14.0mph /  22.5km/h 64% 0.00in /  0mm
02:25 33.0 °F /  0.6 °C 22.1 °F /  -5.5 °C 29.93in /  1013.4hPa NW 6.0mph /  9.7km/h 14.0mph /  22.5km/h 64% 0.00in /  0mm
02:30 32.9 °F /  0.5 °C 22.0 °F /  -5.6 °C 29.93in /  1013.4hPa West 11.0mph /  17.7km/h 15.0mph /  24.1km/h 64% 0.00in /  0mm
02:35 32.8 °F /  0.4 °C 22.0 °F /  -5.6 °C 29.93in /  1013.4hPa WSW 10.0mph /  16.1km/h 12.0mph /  19.3km/h 64% 0.00in /  0mm
02:40 32.8 °F /  0.4 °C 22.0 °F /  -5.6 °C 29.93in /  1013.4hPa West 7.0mph /  11.3km/h 13.0mph /  20.9km/h 64% 0.00in /  0mm
02:45 32.8 °F /  0.4 °C 22.0 °F /  -5.6 °C 29.93in /  1013.4hPa West 6.0mph /  9.7km/h 13.0mph /  20.9km/h 64% 0.00in /  0mm
02:50 32.7 °F /  0.4 °C 21.9 °F /  -5.6 °C 29.93in /  1013.4hPa West 7.0mph /  11.3km/h 16.0mph /  25.7km/h 64% 0.00in /  0mm
02:55 32.7 °F /  0.4 °C 21.9 °F /  -5.6 °C 29.93in /  1013.4hPa West 10.0mph /  16.1km/h 16.0mph /  25.7km/h 64% 0.00in /  0mm
03:00 32.6 °F /  0.3 °C 21.8 °F /  -5.7 °C 29.93in /  1013.4hPa West 8.0mph /  12.9km/h 16.0mph /  25.7km/h 64% 0.00in /  0mm
03:05 32.6 °F /  0.3 °C 21.8 °F /  -5.7 °C 29.93in /  1013.4hPa West 8.0mph /  12.9km/h 15.0mph /  24.1km/h 64% 0.00in /  0mm
03:10 32.6 °F /  0.3 °C 21.8 °F /  -5.7 °C 29.93in /  1013.4hPa WNW 4.0mph /  6.4km/h 13.0mph /  20.9km/h 64% 0.00in /  0mm
03:15 32.6 °F /  0.3 °C 21.8 °F /  -5.7 °C 29.93in /  1013.4hPa West 7.0mph /  11.3km/h 13.0mph /  20.9km/h 64% 0.00in /  0mm
03:20 32.6 °F /  0.3 °C 21.8 °F /  -5.7 °C 29.93in /  1013.4hPa West 6.0mph /  9.7km/h 9.0mph /  14.5km/h 64% 0.00in /  0mm
03:25 32.5 °F /  0.3 °C 21.7 °F /  -5.7 °C 29.93in /  1013.4hPa WSW 6.0mph /  9.7km/h 13.0mph /  20.9km/h 64% 0.00in /  0mm
03:30 32.5 °F /  0.3 °C 21.7 °F /  -5.7 °C 29.93in /  1013.4hPa West 4.0mph /  6.4km/h 9.0mph /  14.5km/h 64% 0.00in /  0mm
03:35 32.5 °F /  0.3 °C 22.0 °F /  -5.6 °C 29.93in /  1013.4hPa West 6.0mph /  9.7km/h 9.0mph /  14.5km/h 65% 0.00in /  0mm
03:40 32.4 °F /  0.2 °C 21.6 °F /  -5.8 °C 29.93in /  1013.4hPa West 5.0mph /  8km/h 11.0mph /  17.7km/h 64% 0.00in /  0mm
03:45 32.4 °F /  0.2 °C 21.9 °F /  -5.6 °C 29.93in /  1013.4hPa West 5.0mph /  8km/h 10.0mph /  16.1km/h 65% 0.00in /  0mm
03:50 32.4 °F /  0.2 °C 21.9 °F /  -5.6 °C 29.93in /  1013.4hPa West 5.0mph /  8km/h 10.0mph /  16.1km/h 65% 0.00in /  0mm
03:55 32.4 °F /  0.2 °C 21.9 °F /  -5.6 °C 29.93in /  1013.4hPa West 5.0mph /  8km/h 11.0mph /  17.7km/h 65% 0.00in /  0mm
04:00 32.4 °F /  0.2 °C 21.9 °F /  -5.6 °C 29.93in /  1013.4hPa West 5.0mph /  8km/h 11.0mph /  17.7km/h 65% 0.00in /  0mm
04:05 32.3 °F /  0.2 °C 21.8 °F /  -5.7 °C 29.93in /  1013.4hPa West 6.0mph /  9.7km/h 12.0mph /  19.3km/h 65% 0.00in /  0mm
04:10 32.4 °F /  0.2 °C 21.9 °F /  -5.6 °C 29.93in /  1013.4hPa West 3.0mph /  4.8km/h 7.0mph /  11.3km/h 65% 0.00in /  0mm
04:15 32.4 °F /  0.2 °C 21.6 °F /  -5.8 °C 29.93in /  1013.4hPa WNW 5.0mph /  8km/h 10.0mph /  16.1km/h 64% 0.00in /  0mm
04:20 32.4 °F /  0.2 °C 21.9 °F /  -5.6 °C 29.93in /  1013.4hPa WNW 8.0mph /  12.9km/h 11.0mph /  17.7km/h 65% 0.00in /  0mm
04:25 32.4 °F /  0.2 °C 21.6 °F /  -5.8 °C 29.92in /  1013.1hPa West 6.0mph /  9.7km/h 11.0mph /  17.7km/h 64% 0.00in /  0mm
04:30 32.4 °F /  0.2 °C 21.6 °F /  -5.8 °C 29.92in /  1013.1hPa WNW 3.0mph /  4.8km/h 8.0mph /  12.9km/h 64% 0.00in /  0mm
04:40 32.4 °F /  0.2 °C 21.9 °F /  -5.6 °C 29.92in /  1013.1hPa WNW 5.0mph /  8km/h 9.0mph /  14.5km/h 65% 0.00in /  0mm
04:45 32.3 °F /  0.2 °C 21.8 °F /  -5.7 °C 29.92in /  1013.1hPa West 4.0mph /  6.4km/h 9.0mph /  14.5km/h 65% 0.00in /  0mm
04:50 32.3 °F /  0.2 °C 21.8 °F /  -5.7 °C 29.92in /  1013.1hPa West 2.0mph /  3.2km/h 7.0mph /  11.3km/h 65% 0.00in /  0mm
04:55 32.3 °F /  0.2 °C 21.8 °F /  -5.7 °C 29.92in /  1013.1hPa West 4.0mph /  6.4km/h 10.0mph /  16.1km/h 65% 0.00in /  0mm
05:00 32.3 °F /  0.2 °C 21.8 °F /  -5.7 °C 29.92in /  1013.1hPa West 4.0mph /  6.4km/h 10.0mph /  16.1km/h 65% 0.00in /  0mm
05:05 32.3 °F /  0.2 °C 21.8 °F /  -5.7 °C 29.92in /  1013.1hPa West 2.0mph /  3.2km/h 10.0mph /  16.1km/h 65% 0.00in /  0mm
05:10 32.3 °F /  0.2 °C 21.8 °F /  -5.7 °C 29.92in /  1013.1hPa West 4.0mph /  6.4km/h 10.0mph /  16.1km/h 65% 0.00in /  0mm
05:15 32.3 °F /  0.2 °C 21.8 °F /  -5.7 °C 29.92in /  1013.1hPa West 4.0mph /  6.4km/h 9.0mph /  14.5km/h 65% 0.00in /  0mm
05:20 32.2 °F /  0.1 °C 22.1 °F /  -5.5 °C 29.92in /  1013.1hPa West 2.0mph /  3.2km/h 7.0mph /  11.3km/h 66% 0.00in /  0mm
05:25 32.2 °F /  0.1 °C 22.1 °F /  -5.5 °C 29.92in /  1013.1hPa West 4.0mph /  6.4km/h 11.0mph /  17.7km/h 66% 0.00in /  0mm
05:30 32.2 °F /  0.1 °C 21.7 °F /  -5.7 °C 29.92in /  1013.1hPa West 7.0mph /  11.3km/h 11.0mph /  17.7km/h 65% 0.00in /  0mm
05:35 32.2 °F /  0.1 °C 22.1 °F /  -5.5 °C 29.92in /  1013.1hPa WSW 3.0mph /  4.8km/h 12.0mph /  19.3km/h 66% 0.00in /  0mm
05:40 32.2 °F /  0.1 °C 22.1 °F /  -5.5 °C 29.92in /  1013.1hPa West 3.0mph /  4.8km/h 10.0mph /  16.1km/h 66% 0.00in /  0mm
05:45 32.1 °F /  0.1 °C 22.0 °F /  -5.6 °C 29.92in /  1013.1hPa West 5.0mph /  8km/h 9.0mph /  14.5km/h 66% 0.00in /  0mm
05:50 32.2 °F /  0.1 °C 22.1 °F /  -5.5 °C 29.92in /  1013.1hPa West 3.0mph /  4.8km/h 11.0mph /  17.7km/h 66% 0.00in /  0mm
05:55 32.1 °F /  0.1 °C 22.0 °F /  -5.6 °C 29.92in /  1013.1hPa West 8.0mph /  12.9km/h 9.0mph /  14.5km/h 66% 0.00in /  0mm
06:00 32.1 °F /  0.1 °C 22.0 °F /  -5.6 °C 29.92in /  1013.1hPa WNW 5.0mph /  8km/h 10.0mph /  16.1km/h 66% 0.00in /  0mm
06:05 32.1 °F /  0.1 °C 22.0 °F /  -5.6 °C 29.92in /  1013.1hPa NW 2.0mph /  3.2km/h 9.0mph /  14.5km/h 66% 0.00in /  0mm
06:10 32.1 °F /  0.1 °C 22.0 °F /  -5.6 °C 29.92in /  1013.1hPa WNW 5.0mph /  8km/h 9.0mph /  14.5km/h 66% 0.00in /  0mm
06:15 32.1 °F /  0.1 °C 22.4 °F /  -5.3 °C 29.92in /  1013.1hPa WNW 5.0mph /  8km/h 13.0mph /  20.9km/h 67% 0.00in /  0mm
06:20 32.2 °F /  0.1 °C 22.5 °F /  -5.3 °C 29.92in /  1013.1hPa WNW 5.0mph /  8km/h 13.0mph /  20.9km/h 67% 0.00in /  0mm
06:25 32.1 °F /  0.1 °C 22.4 °F /  -5.3 °C 29.92in /  1013.1hPa West 7.0mph /  11.3km/h 11.0mph /  17.7km/h 67% 0.00in /  0mm
06:30 32.1 °F /  0.1 °C 22.4 °F /  -5.3 °C 29.92in /  1013.1hPa West 4.0mph /  6.4km/h 9.0mph /  14.5km/h 67% 0.00in /  0mm
06:35 32.1 °F /  0.1 °C 22.4 °F /  -5.3 °C 29.92in /  1013.1hPa West 4.0mph /  6.4km/h 9.0mph /  14.5km/h 67% 0.00in /  0mm
06:40 32.1 °F /  0.1 °C 22.0 °F /  -5.6 °C 29.92in /  1013.1hPa West 5.0mph /  8km/h 10.0mph /  16.1km/h 66% 0.00in /  0mm
06:45 32.2 °F /  0.1 °C 22.5 °F /  -5.3 °C 29.92in /  1013.1hPa West 5.0mph /  8km/h 11.0mph /  17.7km/h 67% 0.00in /  0mm
06:50 32.2 °F /  0.1 °C 22.1 °F /  -5.5 °C 29.92in /  1013.1hPa WNW 5.0mph /  8km/h 11.0mph /  17.7km/h 66% 0.00in /  0mm
06:55 32.1 °F /  0.1 °C 22.4 °F /  -5.3 °C 29.92in /  1013.1hPa NW 5.0mph /  8km/h 13.0mph /  20.9km/h 67% 0.00in /  0mm
07:00 32.2 °F /  0.1 °C 22.5 °F /  -5.3 °C 29.92in /  1013.1hPa West 4.0mph /  6.4km/h 9.0mph /  14.5km/h 67% 0.00in /  0mm
07:05 32.1 °F /  0.1 °C 22.0 °F /  -5.6 °C 29.92in /  1013.1hPa WNW 2.0mph /  3.2km/h 8.0mph /  12.9km/h 66% 0.00in /  0mm
07:10 32.1 °F /  0.1 °C 22.4 °F /  -5.3 °C 29.92in /  1013.1hPa West 4.0mph /  6.4km/h 8.0mph /  12.9km/h 67% 0.00in /  0mm
07:15 32.1 °F /  0.1 °C 22.4 °F /  -5.3 °C 29.92in /  1013.1hPa West 4.0mph /  6.4km/h 10.0mph /  16.1km/h 67% 0.00in /  0mm
07:20 32.1 °F /  0.1 °C 22.4 °F /  -5.3 °C 29.92in /  1013.1hPa WSW 3.0mph /  4.8km/h 7.0mph /  11.3km/h 67% 0.00in /  0mm
07:25 32.2 °F /  0.1 °C 22.5 °F /  -5.3 °C 29.92in /  1013.1hPa West 3.0mph /  4.8km/h 7.0mph /  11.3km/h 67% 0.00in /  0mm
07:30 32.1 °F /  0.1 °C 22.4 °F /  -5.3 °C 29.93in /  1013.4hPa WSW 4.0mph /  6.4km/h 7.0mph /  11.3km/h 67% 0.00in /  0mm
07:35 32.1 °F /  0.1 °C 22.0 °F /  -5.6 °C 29.93in /  1013.4hPa SW 6.0mph /  9.7km/h 8.0mph /  12.9km/h 66% 0.00in /  0mm
07:45 32.2 °F /  0.1 °C 22.5 °F /  -5.3 °C 29.93in /  1013.4hPa SW 2.0mph /  3.2km/h 8.0mph /  12.9km/h 67% 0.00in /  0mm
07:50 32.1 °F /  0.1 °C 22.4 °F /  -5.3 °C 29.93in /  1013.4hPa SSW 3.0mph /  4.8km/h 6.0mph /  9.7km/h 67% 0.00in /  0mm
08:00 32.1 °F /  0.1 °C 22.7 °F /  -5.2 °C 29.93in /  1013.4hPa SSW 3.0mph /  4.8km/h 9.0mph /  14.5km/h 68% 0.00in /  0mm
08:05 32.1 °F /  0.1 °C 22.4 °F /  -5.3 °C 29.93in /  1013.4hPa WSW 2.0mph /  3.2km/h 6.0mph /  9.7km/h 67% 0.00in /  0mm
08:10 32.1 °F /  0.1 °C 22.7 °F /  -5.2 °C 29.94in /  1013.8hPa SW 3.0mph /  4.8km/h 5.0mph /  8km/h 68% 0.00in /  0mm
08:15 32.1 °F /  0.1 °C 22.4 °F /  -5.3 °C 29.93in /  1013.4hPa SW 3.0mph /  4.8km/h 9.0mph /  14.5km/h 67% 0.00in /  0mm
08:20 32.1 °F /  0.1 °C 22.4 °F /  -5.3 °C 29.94in /  1013.8hPa SW 4.0mph /  6.4km/h 9.0mph /  14.5km/h 67% 0.00in /  0mm
08:30 32.2 °F /  0.1 °C 22.8 °F /  -5.1 °C 29.94in /  1013.8hPa WSW 2.0mph /  3.2km/h 8.0mph /  12.9km/h 68% 0.00in /  0mm
08:35 32.3 °F /  0.2 °C 22.6 °F /  -5.2 °C 29.94in /  1013.8hPa WSW 4.0mph /  6.4km/h 10.0mph /  16.1km/h 67% 0.00in /  0mm
08:40 32.4 °F /  0.2 °C 22.7 °F /  -5.2 °C 29.94in /  1013.8hPa WNW 5.0mph /  8km/h 9.0mph /  14.5km/h 67% 0.00in /  0mm
08:45 32.4 °F /  0.2 °C 22.7 °F /  -5.2 °C 29.94in /  1013.8hPa WSW 3.0mph /  4.8km/h 9.0mph /  14.5km/h 67% 0.00in /  0mm
08:55 32.4 °F /  0.2 °C 22.7 °F /  -5.2 °C 29.94in /  1013.8hPa WSW 4.0mph /  6.4km/h 9.0mph /  14.5km/h 67% 0.00in /  0mm
09:00 32.3 °F /  0.2 °C 22.6 °F /  -5.2 °C 29.95in /  1014.1hPa WSW 3.0mph /  4.8km/h 7.0mph /  11.3km/h 67% 0.00in /  0mm
09:10 32.2 °F /  0.1 °C 22.8 °F /  -5.1 °C 29.95in /  1014.1hPa Calm   4.0mph /  6.4km/h 68% 0.00in /  0mm
09:15 32.2 °F /  0.1 °C 22.8 °F /  -5.1 °C 29.95in /  1014.1hPa WSW 1.0mph /  1.6km/h 6.0mph /  9.7km/h 68% 0.00in /  0mm
09:20 32.2 °F /  0.1 °C 22.8 °F /  -5.1 °C 29.95in /  1014.1hPa WSW 3.0mph /  4.8km/h 6.0mph /  9.7km/h 68% 0.00in /  0mm
09:30 32.2 °F /  0.1 °C 23.2 °F /  -4.9 °C 29.95in /  1014.1hPa West 3.0mph /  4.8km/h 9.0mph /  14.5km/h 69% 0.00in /  0mm
09:35 32.1 °F /  0.1 °C 23.1 °F /  -4.9 °C 29.95in /  1014.1hPa West 4.0mph /  6.4km/h 8.0mph /  12.9km/h 69% 0.00in /  0mm
09:40 32.0 °F /  0 °C 23.3 °F /  -4.8 °C 29.96in /  1014.4hPa WSW 5.0mph /  8km/h 9.0mph /  14.5km/h 70% 0.00in /  0mm
09:50 31.9 °F /  -0.1 °C 23.6 °F /  -4.7 °C 29.95in /  1014.1hPa SW 4.0mph /  6.4km/h 8.0mph /  12.9km/h 71% 0.00in /  0mm
09:55 31.9 °F /  -0.1 °C 23.6 °F /  -4.7 °C 29.95in /  1014.1hPa WSW 5.0mph /  8km/h 8.0mph /  12.9km/h 71% 0.00in /  0mm
10:05 31.9 °F /  -0.1 °C 23.9 °F /  -4.5 °C 29.95in /  1014.1hPa WSW 4.0mph /  6.4km/h 8.0mph /  12.9km/h 72% 0.00in /  0mm
10:10 31.9 °F /  -0.1 °C 23.9 °F /  -4.5 °C 29.95in /  1014.1hPa WSW 4.0mph /  6.4km/h 8.0mph /  12.9km/h 72% 0.00in /  0mm
10:20 31.8 °F /  -0.1 °C 23.8 °F /  -4.6 °C 29.96in /  1014.4hPa WSW 7.0mph /  11.3km/h 10.0mph /  16.1km/h 72% 0.00in /  0mm
10:30 31.7 °F /  -0.2 °C 23.7 °F /  -4.6 °C 29.96in /  1014.4hPa WSW 5.0mph /  8km/h 10.0mph /  16.1km/h 72% 0.00in /  0mm
10:45 31.7 °F /  -0.2 °C 24.0 °F /  -4.4 °C 29.96in /  1014.4hPa West 4.0mph /  6.4km/h 9.0mph /  14.5km/h 73% 0.00in /  0mm
10:55 31.8 °F /  -0.1 °C 23.8 °F /  -4.6 °C 29.96in /  1014.4hPa NW 3.0mph /  4.8km/h 7.0mph /  11.3km/h 72% 0.00in /  0mm
11:00 32.0 °F /  0 °C 24.0 °F /  -4.4 °C 29.96in /  1014.4hPa West 5.0mph /  8km/h 7.0mph /  11.3km/h 72% 0.00in /  0mm
11:05 31.9 °F /  -0.1 °C 23.9 °F /  -4.5 °C 29.95in /  1014.1hPa WSW 5.0mph /  8km/h 11.0mph /  17.7km/h 72% 0.00in /  0mm
11:15 31.8 °F /  -0.1 °C 23.8 °F /  -4.6 °C 29.95in /  1014.1hPa SW 3.0mph /  4.8km/h 10.0mph /  16.1km/h 72% 0.00in /  0mm
11:20 31.7 °F /  -0.2 °C 23.4 °F /  -4.8 °C 29.95in /  1014.1hPa WSW 5.0mph /  8km/h 10.0mph /  16.1km/h 71% 0.00in /  0mm
11:25 31.8 °F /  -0.1 °C 23.5 °F /  -4.7 °C 29.95in /  1014.1hPa WSW 5.0mph /  8km/h 12.0mph /  19.3km/h 71% 0.00in /  0mm
11:30 31.9 °F /  -0.1 °C 23.6 °F /  -4.7 °C 29.95in /  1014.1hPa West 3.0mph /  4.8km/h 9.0mph /  14.5km/h 71% 0.00in /  0mm
11:35 32.0 °F /  0 °C 23.7 °F /  -4.6 °C 29.94in /  1013.8hPa Calm   9.0mph /  14.5km/h 71% 0.00in /  0mm
11:40 32.2 °F /  0.1 °C 23.5 °F /  -4.7 °C 29.94in /  1013.8hPa West 4.0mph /  6.4km/h 10.0mph /  16.1km/h 70% 0.00in /  0mm
11:45 32.3 °F /  0.2 °C 23.9 °F /  -4.5 °C 29.94in /  1013.8hPa West 2.0mph /  3.2km/h 7.0mph /  11.3km/h 71% 0.00in /  0mm
11:50 32.3 °F /  0.2 °C 23.6 °F /  -4.7 °C 29.93in /  1013.4hPa West 5.0mph /  8km/h 11.0mph /  17.7km/h 70% 0.01in /  0.25mm
11:55 32.2 °F /  0.1 °C 23.5 °F /  -4.7 °C 29.93in /  1013.4hPa WNW 8.0mph /  12.9km/h 10.0mph /  16.1km/h 70% 0.01in /  0.25mm
12:05 32.2 °F /  0.1 °C 23.5 °F /  -4.7 °C 29.93in /  1013.4hPa West 6.0mph /  9.7km/h 9.0mph /  14.5km/h 70% 0.01in /  0.25mm
12:10 32.3 °F /  0.2 °C 23.6 °F /  -4.7 °C 29.93in /  1013.4hPa SW 3.0mph /  4.8km/h 7.0mph /  11.3km/h 70% 0.01in /  0.25mm
12:15 32.2 °F /  0.1 °C 23.5 °F /  -4.7 °C 29.93in /  1013.4hPa West 4.0mph /  6.4km/h 14.0mph /  22.5km/h 70% 0.01in /  0.25mm
12:20 32.1 °F /  0.1 °C 23.4 °F /  -4.8 °C 29.93in /  1013.4hPa WSW 5.0mph /  8km/h 14.0mph /  22.5km/h 70% 0.01in /  0.25mm
12:25 32.1 °F /  0.1 °C 23.1 °F /  -4.9 °C 29.92in /  1013.1hPa WSW 6.0mph /  9.7km/h 11.0mph /  17.7km/h 69% 0.01in /  0.25mm
12:30 32.3 °F /  0.2 °C 23.3 °F /  -4.8 °C 29.92in /  1013.1hPa West 6.0mph /  9.7km/h 11.0mph /  17.7km/h 69% 0.01in /  0.25mm
12:35 32.3 °F /  0.2 °C 23.6 °F /  -4.7 °C 29.92in /  1013.1hPa West 5.0mph /  8km/h 10.0mph /  16.1km/h 70% 0.01in /  0.25mm
12:40 32.3 °F /  0.2 °C 23.3 °F /  -4.8 °C 29.92in /  1013.1hPa West 6.0mph /  9.7km/h 11.0mph /  17.7km/h 69% 0.01in /  0.25mm
12:45 32.4 °F /  0.2 °C 23.4 °F /  -4.8 °C 29.92in /  1013.1hPa WNW 4.0mph /  6.4km/h 11.0mph /  17.7km/h 69% 0.01in /  0.25mm
12:55 32.4 °F /  0.2 °C 23.0 °F /  -5 °C 29.91in /  1012.8hPa West 6.0mph /  9.7km/h 13.0mph /  20.9km/h 68% 0.00in /  0mm
13:10 33.0 °F /  0.6 °C 22.5 °F /  -5.3 °C 29.91in /  1012.8hPa West 7.0mph /  11.3km/h 14.0mph /  22.5km/h 65% 0.00in /  0mm
13:15 33.2 °F /  0.7 °C 22.3 °F /  -5.4 °C 29.91in /  1012.8hPa West 8.0mph /  12.9km/h 13.0mph /  20.9km/h 64% 0.00in /  0mm
13:20 32.9 °F /  0.5 °C 22.0 °F /  -5.6 °C 29.91in /  1012.8hPa West 6.0mph /  9.7km/h 15.0mph /  24.1km/h 64% 0.00in /  0mm
13:25 32.9 °F /  0.5 °C 21.7 °F /  -5.7 °C 29.91in /  1012.8hPa West 7.0mph /  11.3km/h 15.0mph /  24.1km/h 63% 0.00in /  0mm
13:30 33.0 °F /  0.6 °C 22.1 °F /  -5.5 °C 29.91in /  1012.8hPa West 6.0mph /  9.7km/h 13.0mph /  20.9km/h 64% 0.00in /  0mm
13:40 32.7 °F /  0.4 °C 22.2 °F /  -5.4 °C 29.91in /  1012.8hPa West 4.0mph /  6.4km/h 9.0mph /  14.5km/h 65% 0.00in /  0mm
13:45 32.7 °F /  0.4 °C 22.2 °F /  -5.4 °C 29.91in /  1012.8hPa West 2.0mph /  3.2km/h 8.0mph /  12.9km/h 65% 0.00in /  0mm
13:50 32.8 °F /  0.4 °C 21.6 °F /  -5.8 °C 29.91in /  1012.8hPa West 5.0mph /  8km/h 14.0mph /  22.5km/h 63% 0.00in /  0mm
13:55 32.6 °F /  0.3 °C 21.0 °F /  -6.1 °C 29.91in /  1012.8hPa West 6.0mph /  9.7km/h 15.0mph /  24.1km/h 62% 0.00in /  0mm
14:00 32.5 °F /  0.3 °C 21.3 °F /  -5.9 °C 29.91in /  1012.8hPa West 6.0mph /  9.7km/h 15.0mph /  24.1km/h 63% 0.00in /  0mm
14:05 32.3 °F /  0.2 °C 21.5 °F /  -5.8 °C 29.91in /  1012.8hPa WNW 7.0mph /  11.3km/h 13.0mph /  20.9km/h 64% 0.00in /  0mm
14:10 32.3 °F /  0.2 °C 21.5 °F /  -5.8 °C 29.91in /  1012.8hPa WNW 12.0mph /  19.3km/h 12.0mph /  19.3km/h 64% 0.00in /  0mm
14:25 33.0 °F /  0.6 °C 20.2 °F /  -6.6 °C 29.90in /  1012.4hPa West 9.0mph /  14.5km/h 14.0mph /  22.5km/h 59% 0.00in /  0mm
14:40 32.5 °F /  0.3 °C 20.1 °F /  -6.6 °C 29.91in /  1012.8hPa West 7.0mph /  11.3km/h 15.0mph /  24.1km/h 60% 0.00in /  0mm
14:45 32.3 °F /  0.2 °C 19.6 °F /  -6.9 °C 29.91in /  1012.8hPa West 7.0mph /  11.3km/h 14.0mph /  22.5km/h 59% 0.00in /  0mm
14:50 32.2 °F /  0.1 °C 19.5 °F /  -6.9 °C 29.91in /  1012.8hPa WSW 5.0mph /  8km/h 12.0mph /  19.3km/h 59% 0.00in /  0mm
14:55 32.1 °F /  0.1 °C 19.0 °F /  -7.2 °C 29.91in /  1012.8hPa NW 8.0mph /  12.9km/h 19.0mph /  30.6km/h 58% 0.00in /  0mm
15:00 31.8 °F /  -0.1 °C 18.7 °F /  -7.4 °C 29.91in /  1012.8hPa West 8.0mph /  12.9km/h 19.0mph /  30.6km/h 58% 0.00in /  0mm
15:05 31.7 °F /  -0.2 °C 19.0 °F /  -7.2 °C 29.92in /  1013.1hPa West 9.0mph /  14.5km/h 18.0mph /  29km/h 59% 0.00in /  0mm
15:10 31.6 °F /  -0.2 °C 18.9 °F /  -7.3 °C 29.92in /  1013.1hPa West 8.0mph /  12.9km/h 18.0mph /  29km/h 59% 0.00in /  0mm
15:15 31.5 °F /  -0.3 °C 18.8 °F /  -7.3 °C 29.92in /  1013.1hPa West 7.0mph /  11.3km/h 10.0mph /  16.1km/h 59% 0.00in /  0mm
15:20 31.4 °F /  -0.3 °C 19.1 °F /  -7.2 °C 29.92in /  1013.1hPa WNW 7.0mph /  11.3km/h 11.0mph /  17.7km/h 60% 0.00in /  0mm
15:25 31.4 °F /  -0.3 °C 19.1 °F /  -7.2 °C 29.92in /  1013.1hPa WNW 3.0mph /  4.8km/h 9.0mph /  14.5km/h 60% 0.00in /  0mm
15:35 31.4 °F /  -0.3 °C 19.1 °F /  -7.2 °C 29.92in /  1013.1hPa West 8.0mph /  12.9km/h 11.0mph /  17.7km/h 60% 0.00in /  0mm
15:40 31.4 °F /  -0.3 °C 19.1 °F /  -7.2 °C 29.92in /  1013.1hPa West 5.0mph /  8km/h 13.0mph /  20.9km/h 60% 0.00in /  0mm
15:50 31.4 °F /  -0.3 °C 18.7 °F /  -7.4 °C 29.93in /  1013.4hPa West 5.0mph /  8km/h 16.0mph /  25.7km/h 59% 0.00in /  0mm
15:55 31.3 °F /  -0.4 °C 19.0 °F /  -7.2 °C 29.93in /  1013.4hPa West 7.0mph /  11.3km/h 16.0mph /  25.7km/h 60% 0.00in /  0mm
16:00 31.2 °F /  -0.4 °C 18.5 °F /  -7.5 °C 29.93in /  1013.4hPa WNW 11.0mph /  17.7km/h 17.0mph /  27.4km/h 59% 0.00in /  0mm
16:10 31.1 °F /  -0.5 °C 18.4 °F /  -7.6 °C 29.93in /  1013.4hPa West 8.0mph /  12.9km/h 17.0mph /  27.4km/h 59% 0.00in /  0mm
16:15 31.0 °F /  -0.6 °C 18.3 °F /  -7.6 °C 29.93in /  1013.4hPa West 8.0mph /  12.9km/h 17.0mph /  27.4km/h 59% 0.00in /  0mm
16:25 30.7 °F /  -0.7 °C 18.8 °F /  -7.3 °C 29.93in /  1013.4hPa WNW 8.0mph /  12.9km/h 16.0mph /  25.7km/h 61% 0.00in /  0mm
16:30 30.6 °F /  -0.8 °C 18.7 °F /  -7.4 °C 29.93in /  1013.4hPa West 3.0mph /  4.8km/h 13.0mph /  20.9km/h 61% 0.00in /  0mm
16:35 30.6 °F /  -0.8 °C 18.7 °F /  -7.4 °C 29.93in /  1013.4hPa West 5.0mph /  8km/h 13.0mph /  20.9km/h 61% 0.00in /  0mm
16:40 30.4 °F /  -0.9 °C 18.5 °F /  -7.5 °C 29.93in /  1013.4hPa SW 2.0mph /  3.2km/h 12.0mph /  19.3km/h 61% 0.00in /  0mm
16:45 30.4 °F /  -0.9 °C 18.9 °F /  -7.3 °C 29.93in /  1013.4hPa West 7.0mph /  11.3km/h 14.0mph /  22.5km/h 62% 0.00in /  0mm
16:50 30.3 °F /  -0.9 °C 18.5 °F /  -7.5 °C 29.93in /  1013.4hPa West 6.0mph /  9.7km/h 15.0mph /  24.1km/h 61% 0.00in /  0mm
16:55 30.2 °F /  -1 °C 18.4 °F /  -7.6 °C 29.93in /  1013.4hPa WSW 2.0mph /  3.2km/h 14.0mph /  22.5km/h 61% 0.00in /  0mm
17:00 30.1 °F /  -1.1 °C 18.3 °F /  -7.6 °C 29.94in /  1013.8hPa WSW 6.0mph /  9.7km/h 14.0mph /  22.5km/h 61% 0.00in /  0mm
17:05 30.1 °F /  -1.1 °C 18.3 °F /  -7.6 °C 29.94in /  1013.8hPa West 6.0mph /  9.7km/h 13.0mph /  20.9km/h 61% 0.00in /  0mm
17:10 30.1 °F /  -1.1 °C 17.9 °F /  -7.8 °C 29.94in /  1013.8hPa West 3.0mph /  4.8km/h 15.0mph /  24.1km/h 60% 0.00in /  0mm
17:15 30.1 °F /  -1.1 °C 18.3 °F /  -7.6 °C 29.94in /  1013.8hPa WNW 11.0mph /  17.7km/h 11.0mph /  17.7km/h 61% 0.00in /  0mm
17:20 30.1 °F /  -1.1 °C 17.9 °F /  -7.8 °C 29.94in /  1013.8hPa West 7.0mph /  11.3km/h 18.0mph /  29km/h 60% 0.00in /  0mm
17:25 30.0 °F /  -1.1 °C 17.8 °F /  -7.9 °C 29.95in /  1014.1hPa West 8.0mph /  12.9km/h 18.0mph /  29km/h 60% 0.00in /  0mm
17:30 29.9 °F /  -1.2 °C 17.7 °F /  -7.9 °C 29.95in /  1014.1hPa West 8.0mph /  12.9km/h 16.0mph /  25.7km/h 60% 0.00in /  0mm
17:40 29.7 °F /  -1.3 °C 17.5 °F /  -8.1 °C 29.95in /  1014.1hPa West 7.0mph /  11.3km/h 16.0mph /  25.7km/h 60% 0.00in /  0mm
17:45 29.7 °F /  -1.3 °C 17.5 °F /  -8.1 °C 29.95in /  1014.1hPa WNW 8.0mph /  12.9km/h 15.0mph /  24.1km/h 60% 0.00in /  0mm
17:55 29.5 °F /  -1.4 °C 18.1 °F /  -7.7 °C 29.95in /  1014.1hPa WSW 6.0mph /  9.7km/h 9.0mph /  14.5km/h 62% 0.00in /  0mm
19:55 27.6 °F /  -2.4 °C 17.0 °F /  -8.3 °C 30.00in /  1015.8hPa West 4.0mph /  6.4km/h 12.0mph /  19.3km/h 64% 0.00in /  0mm
20:00 27.6 °F /  -2.4 °C 17.0 °F /  -8.3 °C 30.00in /  1015.8hPa West 4.0mph /  6.4km/h 13.0mph /  20.9km/h 64% 0.00in /  0mm
20:05 27.4 °F /  -2.6 °C 16.8 °F /  -8.4 °C 30.00in /  1015.8hPa West 10.0mph /  16.1km/h 14.0mph /  22.5km/h 64% 0.00in /  0mm
20:10 27.3 °F /  -2.6 °C 17.1 °F /  -8.3 °C 30.00in /  1015.8hPa WSW 10.0mph /  16.1km/h 14.0mph /  22.5km/h 65% 0.00in /  0mm
20:15 27.2 °F /  -2.7 °C 17.0 °F /  -8.3 °C 30.00in /  1015.8hPa West 7.0mph /  11.3km/h 14.0mph /  22.5km/h 65% 0.00in /  0mm
20:35 26.8 °F /  -2.9 °C 17.0 °F /  -8.3 °C 30.00in /  1015.8hPa West 8.0mph /  12.9km/h 13.0mph /  20.9km/h 66% 0.00in /  0mm
20:40 26.8 °F /  -2.9 °C 17.0 °F /  -8.3 °C 30.00in /  1015.8hPa WNW 8.0mph /  12.9km/h 12.0mph /  19.3km/h 66% 0.00in /  0mm
20:45 26.8 °F /  -2.9 °C 16.6 °F /  -8.6 °C 30.00in /  1015.8hPa WNW 17.0mph /  27.4km/h 17.0mph /  27.4km/h 65% 0.00in /  0mm
20:50 26.7 °F /  -2.9 °C 16.9 °F /  -8.4 °C 30.00in /  1015.8hPa West 6.0mph /  9.7km/h 17.0mph /  27.4km/h 66% 0.00in /  0mm
21:05 26.6 °F /  -3 °C 16.4 °F /  -8.7 °C 30.01in /  1016.1hPa WSW 4.0mph /  6.4km/h 12.0mph /  19.3km/h 65% 0.00in /  0mm
21:10 26.6 °F /  -3 °C 16.4 °F /  -8.7 °C 30.01in /  1016.1hPa West 7.0mph /  11.3km/h 14.0mph /  22.5km/h 65% 0.00in /  0mm
21:15 26.5 °F /  -3.1 °C 16.3 °F /  -8.7 °C 30.01in /  1016.1hPa West 9.0mph /  14.5km/h 12.0mph /  19.3km/h 65% 0.00in /  0mm
21:20 26.5 °F /  -3.1 °C 16.3 °F /  -8.7 °C 30.01in /  1016.1hPa WNW 5.0mph /  8km/h 13.0mph /  20.9km/h 65% 0.00in /  0mm
21:25 26.5 °F /  -3.1 °C 16.3 °F /  -8.7 °C 30.01in /  1016.1hPa WNW 7.0mph /  11.3km/h 14.0mph /  22.5km/h 65% 0.00in /  0mm
21:30 26.5 °F /  -3.1 °C 16.0 °F /  -8.9 °C 30.01in /  1016.1hPa WNW 7.0mph /  11.3km/h 14.0mph /  22.5km/h 64% 0.00in /  0mm
21:35 26.5 °F /  -3.1 °C 16.0 °F /  -8.9 °C 30.01in /  1016.1hPa WNW 6.0mph /  9.7km/h 12.0mph /  19.3km/h 64% 0.00in /  0mm
21:45 26.7 °F /  -2.9 °C 15.8 °F /  -9 °C 30.01in /  1016.1hPa West 6.0mph /  9.7km/h 13.0mph /  20.9km/h 63% 0.00in /  0mm
21:50 27.0 °F /  -2.8 °C 15.7 °F /  -9.1 °C 30.01in /  1016.1hPa West 5.0mph /  8km/h 9.0mph /  14.5km/h 62% 0.00in /  0mm
21:55 27.3 °F /  -2.6 °C 15.2 °F /  -9.3 °C 30.01in /  1016.1hPa WNW 8.0mph /  12.9km/h 15.0mph /  24.1km/h 60% 0.00in /  0mm
22:00 27.4 °F /  -2.6 °C 15.3 °F /  -9.3 °C 30.00in /  1015.8hPa West 7.0mph /  11.3km/h 15.0mph /  24.1km/h 60% 0.00in /  0mm
22:10 27.4 °F /  -2.6 °C 14.9 °F /  -9.5 °C 30.00in /  1015.8hPa West 8.0mph /  12.9km/h 14.0mph /  22.5km/h 59% 0.00in /  0mm
22:15 27.3 °F /  -2.6 °C 14.8 °F /  -9.6 °C 30.01in /  1016.1hPa West 10.0mph /  16.1km/h 10.0mph /  16.1km/h 59% 0.00in /  0mm
22:25 27.4 °F /  -2.6 °C 14.9 °F /  -9.5 °C 30.00in /  1015.8hPa West 5.0mph /  8km/h 13.0mph /  20.9km/h 59% 0.00in /  0mm
22:30 27.4 °F /  -2.6 °C 14.9 °F /  -9.5 °C 30.00in /  1015.8hPa West 11.0mph /  17.7km/h 12.0mph /  19.3km/h 59% 0.00in /  0mm
22:40 27.2 °F /  -2.7 °C 14.4 °F /  -9.8 °C 30.00in /  1015.8hPa West 7.0mph /  11.3km/h 15.0mph /  24.1km/h 58% 0.00in /  0mm
22:55 27.5 °F /  -2.5 °C 14.2 °F /  -9.9 °C 29.99in /  1015.5hPa West 7.0mph /  11.3km/h 14.0mph /  22.5km/h 57% 0.00in /  0mm
23:00 27.6 °F /  -2.4 °C 14.3 °F /  -9.8 °C 30.00in /  1015.8hPa West 6.0mph /  9.7km/h 12.0mph /  19.3km/h 57% 0.00in /  0mm
23:05 27.6 °F /  -2.4 °C 14.3 °F /  -9.8 °C 30.00in /  1015.8hPa West 3.0mph /  4.8km/h 11.0mph /  17.7km/h 57% 0.00in /  0mm
23:15 27.8 °F /  -2.3 °C 14.1 °F /  -9.9 °C 30.00in /  1015.8hPa WNW 9.0mph /  14.5km/h 13.0mph /  20.9km/h 56% 0.00in /  0mm
23:30 28.0 °F /  -2.2 °C 14.3 °F /  -9.8 °C 30.00in /  1015.8hPa West 8.0mph /  12.9km/h 10.0mph /  16.1km/h 56% 0.00in /  0mm
23:35 28.1 °F /  -2.2 °C 14.4 °F /  -9.8 °C 29.99in /  1015.5hPa West 2.0mph /  3.2km/h 10.0mph /  16.1km/h 56% 0.00in /  0mm
23:40 28.0 °F /  -2.2 °C 14.3 °F /  -9.8 °C 29.99in /  1015.5hPa West 5.0mph /  8km/h 11.0mph /  17.7km/h 56% 0.00in /  0mm
23:45 28.1 °F /  -2.2 °C 14.4 °F /  -9.8 °C 29.99in /  1015.5hPa West 4.0mph /  6.4km/h 11.0mph /  17.7km/h 56% 0.00in /  0mm
23:50 28.1 °F /  -2.2 °C 14.4 °F /  -9.8 °C 29.99in /  1015.5hPa West 5.0mph /  8km/h 10.0mph /  16.1km/h 56% 0.00in /  0mm
23:55 28.2 °F /  -2.1 °C 14.5 °F /  -9.7 °C 29.99in /  1015.5hPa West 5.0mph /  8km/h 10.0mph /  16.1km/h 56% 0.00in /  0mm
Buffalo, New York, USA
Compliments of Weather Underground - 2.25 mb